sensor_id;sensor_type;location;lat;lon;timestamp;P1;durP1;ratioP1;P2;durP2;ratioP2
71973;SDS011;59840;52.122;5.404;2023-10-13T00:00:46;14.18;;;6.80;;
71973;SDS011;59840;52.122;5.404;2023-10-13T00:03:14;11.90;;;6.57;;
71973;SDS011;59840;52.122;5.404;2023-10-13T00:05:45;11.88;;;6.63;;
71973;SDS011;59840;52.122;5.404;2023-10-13T00:08:11;17.40;;;7.22;;
71973;SDS011;59840;52.122;5.404;2023-10-13T00:10:40;10.23;;;6.75;;
71973;SDS011;59840;52.122;5.404;2023-10-13T00:13:06;17.20;;;6.85;;
71973;SDS011;59840;52.122;5.404;2023-10-13T00:15:45;12.80;;;7.00;;
71973;SDS011;59840;52.122;5.404;2023-10-13T00:18:26;13.27;;;7.35;;
71973;SDS011;59840;52.122;5.404;2023-10-13T00:21:00;10.60;;;6.30;;
71973;SDS011;59840;52.122;5.404;2023-10-13T00:23:38;10.75;;;6.45;;
71973;SDS011;59840;52.122;5.404;2023-10-13T00:26:23;15.52;;;5.97;;
71973;SDS011;59840;52.122;5.404;2023-10-13T00:28:56;12.53;;;7.00;;
71973;SDS011;59840;52.122;5.404;2023-10-13T00:31:42;16.00;;;6.50;;
71973;SDS011;59840;52.122;5.404;2023-10-13T00:34:11;15.07;;;7.35;;
71973;SDS011;59840;52.122;5.404;2023-10-13T00:36:40;11.38;;;6.95;;
71973;SDS011;59840;52.122;5.404;2023-10-13T00:39:15;8.75;;;6.30;;
71973;SDS011;59840;52.122;5.404;2023-10-13T00:41:43;11.43;;;6.50;;
71973;SDS011;59840;52.122;5.404;2023-10-13T00:44:23;8.82;;;5.80;;
71973;SDS011;59840;52.122;5.404;2023-10-13T00:47:04;10.63;;;5.60;;
71973;SDS011;59840;52.122;5.404;2023-10-13T00:49:34;11.40;;;5.38;;
71973;SDS011;59840;52.122;5.404;2023-10-13T00:52:06;13.77;;;5.57;;
71973;SDS011;59840;52.122;5.404;2023-10-13T00:54:36;12.53;;;5.47;;
71973;SDS011;59840;52.122;5.404;2023-10-13T00:57:04;12.95;;;6.18;;
71973;SDS011;59840;52.122;5.404;2023-10-13T00:59:38;12.68;;;6.45;;
71973;SDS011;59840;52.122;5.404;2023-10-13T01:02:08;9.07;;;6.25;;
71973;SDS011;59840;52.122;5.404;2023-10-13T01:04:53;12.48;;;5.57;;
71973;SDS011;59840;52.122;5.404;2023-10-13T01:07:20;9.10;;;6.27;;
71973;SDS011;59840;52.122;5.404;2023-10-13T01:09:49;16.65;;;7.30;;
71973;SDS011;59840;52.122;5.404;2023-10-13T01:12:16;8.93;;;6.03;;
71973;SDS011;59840;52.122;5.404;2023-10-13T01:14:42;8.10;;;5.75;;
71973;SDS011;59840;52.122;5.404;2023-10-13T01:17:10;11.77;;;6.85;;
71973;SDS011;59840;52.122;5.404;2023-10-13T01:19:37;11.20;;;6.67;;
71973;SDS011;59840;52.122;5.404;2023-10-13T01:22:09;20.20;;;8.00;;
71973;SDS011;59840;52.122;5.404;2023-10-13T01:24:36;13.23;;;7.78;;
71973;SDS011;59840;52.122;5.404;2023-10-13T01:27:04;14.60;;;7.78;;
71973;SDS011;59840;52.122;5.404;2023-10-13T01:29:51;18.38;;;7.45;;
71973;SDS011;59840;52.122;5.404;2023-10-13T01:32:24;14.80;;;7.37;;
71973;SDS011;59840;52.122;5.404;2023-10-13T01:34:52;20.77;;;8.45;;
71973;SDS011;59840;52.122;5.404;2023-10-13T01:37:22;11.13;;;7.35;;
71973;SDS011;59840;52.122;5.404;2023-10-13T01:39:49;12.05;;;7.13;;
71973;SDS011;59840;52.122;5.404;2023-10-13T01:42:17;15.43;;;7.40;;
71973;SDS011;59840;52.122;5.404;2023-10-13T01:44:48;14.70;;;7.20;;
71973;SDS011;59840;52.122;5.404;2023-10-13T01:47:15;13.57;;;7.28;;
71973;SDS011;59840;52.122;5.404;2023-10-13T01:49:43;11.60;;;7.45;;
71973;SDS011;59840;52.122;5.404;2023-10-13T01:52:14;12.25;;;7.03;;
71973;SDS011;59840;52.122;5.404;2023-10-13T01:54:45;15.45;;;7.28;;
71973;SDS011;59840;52.122;5.404;2023-10-13T01:57:12;11.73;;;7.20;;
71973;SDS011;59840;52.122;5.404;2023-10-13T01:59:47;10.88;;;7.10;;
71973;SDS011;59840;52.122;5.404;2023-10-13T02:02:15;17.80;;;7.43;;
71973;SDS011;59840;52.122;5.404;2023-10-13T02:04:57;14.38;;;6.80;;
71973;SDS011;59840;52.122;5.404;2023-10-13T02:07:27;8.82;;;6.63;;
71973;SDS011;59840;52.122;5.404;2023-10-13T02:10:01;13.17;;;6.73;;
71973;SDS011;59840;52.122;5.404;2023-10-13T02:12:38;11.80;;;6.32;;
71973;SDS011;59840;52.122;5.404;2023-10-13T02:15:11;24.02;;;6.85;;
71973;SDS011;59840;52.122;5.404;2023-10-13T02:17:47;10.05;;;5.90;;
71973;SDS011;59840;52.122;5.404;2023-10-13T02:20:18;11.07;;;6.60;;
71973;SDS011;59840;52.122;5.404;2023-10-13T02:22:48;9.43;;;5.83;;
71973;SDS011;59840;52.122;5.404;2023-10-13T02:25:16;10.95;;;6.30;;
71973;SDS011;59840;52.122;5.404;2023-10-13T02:28:02;9.48;;;5.85;;
71973;SDS011;59840;52.122;5.404;2023-10-13T02:30:38;10.52;;;6.20;;
71973;SDS011;59840;52.122;5.404;2023-10-13T02:33:05;12.95;;;6.20;;
71973;SDS011;59840;52.122;5.404;2023-10-13T02:35:33;7.83;;;5.70;;
71973;SDS011;59840;52.122;5.404;2023-10-13T02:38:01;9.13;;;5.97;;
71973;SDS011;59840;52.122;5.404;2023-10-13T02:40:37;9.07;;;5.30;;
71973;SDS011;59840;52.122;5.404;2023-10-13T02:43:04;7.95;;;5.07;;
71973;SDS011;59840;52.122;5.404;2023-10-13T02:45:32;10.13;;;5.70;;
71973;SDS011;59840;52.122;5.404;2023-10-13T02:48:03;13.57;;;5.43;;
71973;SDS011;59840;52.122;5.404;2023-10-13T02:50:43;6.90;;;5.20;;
71973;SDS011;59840;52.122;5.404;2023-10-13T02:53:11;9.68;;;5.10;;
71973;SDS011;59840;52.122;5.404;2023-10-13T02:55:51;12.70;;;5.10;;
71973;SDS011;59840;52.122;5.404;2023-10-13T02:58:30;21.25;;;6.28;;
71973;SDS011;59840;52.122;5.404;2023-10-13T03:01:07;9.93;;;5.30;;
71973;SDS011;59840;52.122;5.404;2023-10-13T03:03:53;8.60;;;5.72;;
71973;SDS011;59840;52.122;5.404;2023-10-13T03:06:22;11.05;;;5.40;;
71973;SDS011;59840;52.122;5.404;2023-10-13T03:08:53;16.75;;;6.03;;
71973;SDS011;59840;52.122;5.404;2023-10-13T03:11:20;8.93;;;5.45;;
71973;SDS011;59840;52.122;5.404;2023-10-13T03:13:49;14.83;;;5.90;;
71973;SDS011;59840;52.122;5.404;2023-10-13T03:16:18;15.38;;;5.85;;
71973;SDS011;59840;52.122;5.404;2023-10-13T03:18:46;11.63;;;5.68;;
71973;SDS011;59840;52.122;5.404;2023-10-13T03:21:22;9.02;;;5.50;;
71973;SDS011;59840;52.122;5.404;2023-10-13T03:24:03;12.15;;;5.07;;
71973;SDS011;59840;52.122;5.404;2023-10-13T03:26:33;5.77;;;4.47;;
71973;SDS011;59840;52.122;5.404;2023-10-13T03:29:03;11.98;;;5.25;;
71973;SDS011;59840;52.122;5.404;2023-10-13T03:31:33;9.48;;;4.85;;
71973;SDS011;59840;52.122;5.404;2023-10-13T03:34:04;8.32;;;4.90;;
71973;SDS011;59840;52.122;5.404;2023-10-13T03:36:31;7.28;;;4.68;;
71973;SDS011;59840;52.122;5.404;2023-10-13T03:39:16;17.07;;;5.17;;
71973;SDS011;59840;52.122;5.404;2023-10-13T03:41:43;8.23;;;4.50;;
71973;SDS011;59840;52.122;5.404;2023-10-13T03:44:11;5.63;;;4.38;;
71973;SDS011;59840;52.122;5.404;2023-10-13T03:46:44;10.73;;;4.68;;
71973;SDS011;59840;52.122;5.404;2023-10-13T03:49:17;11.95;;;4.55;;
71973;SDS011;59840;52.122;5.404;2023-10-13T03:51:51;7.40;;;4.63;;
71973;SDS011;59840;52.122;5.404;2023-10-13T03:54:21;8.75;;;4.07;;
71973;SDS011;59840;52.122;5.404;2023-10-13T03:56:47;10.02;;;3.92;;
71973;SDS011;59840;52.122;5.404;2023-10-13T03:59:18;9.10;;;4.28;;
71973;SDS011;59840;52.122;5.404;2023-10-13T04:01:46;5.95;;;3.75;;
71973;SDS011;59840;52.122;5.404;2023-10-13T04:04:25;8.57;;;4.73;;
71973;SDS011;59840;52.122;5.404;2023-10-13T04:07:10;6.97;;;4.32;;
71973;SDS011;59840;52.122;5.404;2023-10-13T04:09:37;5.50;;;4.07;;
71973;SDS011;59840;52.122;5.404;2023-10-13T04:12:13;13.30;;;4.60;;
71973;SDS011;59840;52.122;5.404;2023-10-13T04:14:40;7.32;;;3.78;;
71973;SDS011;59840;52.122;5.404;2023-10-13T04:17:08;4.67;;;3.40;;
71973;SDS011;59840;52.122;5.404;2023-10-13T04:19:41;6.93;;;3.72;;
71973;SDS011;59840;52.122;5.404;2023-10-13T04:22:26;8.07;;;4.13;;
71973;SDS011;59840;52.122;5.404;2023-10-13T04:25:20;6.53;;;4.07;;
71973;SDS011;59840;52.122;5.404;2023-10-13T04:28:25;7.53;;;4.32;;
71973;SDS011;59840;52.122;5.404;2023-10-13T04:31:01;7.17;;;3.60;;
71973;SDS011;59840;52.122;5.404;2023-10-13T04:33:50;8.60;;;4.72;;
71973;SDS011;59840;52.122;5.404;2023-10-13T04:36:27;5.85;;;4.30;;
71973;SDS011;59840;52.122;5.404;2023-10-13T04:38:58;10.48;;;4.05;;
71973;SDS011;59840;52.122;5.404;2023-10-13T04:41:26;6.60;;;3.72;;
71973;SDS011;59840;52.122;5.404;2023-10-13T04:44:24;5.70;;;3.90;;
71973;SDS011;59840;52.122;5.404;2023-10-13T04:47:10;6.60;;;3.90;;
71973;SDS011;59840;52.122;5.404;2023-10-13T04:49:44;5.78;;;3.50;;
71973;SDS011;59840;52.122;5.404;2023-10-13T04:52:14;5.57;;;3.17;;
71973;SDS011;59840;52.122;5.404;2023-10-13T04:54:53;8.18;;;3.45;;
71973;SDS011;59840;52.122;5.404;2023-10-13T04:57:23;5.17;;;3.00;;
71973;SDS011;59840;52.122;5.404;2023-10-13T05:00:09;6.38;;;2.65;;
71973;SDS011;59840;52.122;5.404;2023-10-13T05:02:40;4.18;;;2.40;;
71973;SDS011;59840;52.122;5.404;2023-10-13T05:05:14;4.93;;;2.60;;
71973;SDS011;59840;52.122;5.404;2023-10-13T05:07:41;9.55;;;2.83;;
71973;SDS011;59840;52.122;5.404;2023-10-13T05:10:26;6.77;;;2.80;;
71973;SDS011;59840;52.122;5.404;2023-10-13T05:13:12;5.45;;;2.67;;
71973;SDS011;59840;52.122;5.404;2023-10-13T05:15:56;5.60;;;3.17;;
71973;SDS011;59840;52.122;5.404;2023-10-13T05:18:41;6.20;;;3.47;;
71973;SDS011;59840;52.122;5.404;2023-10-13T05:21:27;6.80;;;3.70;;
71973;SDS011;59840;52.122;5.404;2023-10-13T05:24:12;4.70;;;3.40;;
71973;SDS011;59840;52.122;5.404;2023-10-13T05:26:57;5.75;;;3.88;;
71973;SDS011;59840;52.122;5.404;2023-10-13T05:29:43;5.82;;;3.58;;
71973;SDS011;59840;52.122;5.404;2023-10-13T05:32:30;6.65;;;3.67;;
71973;SDS011;59840;52.122;5.404;2023-10-13T05:35:16;5.72;;;4.45;;
71973;SDS011;59840;52.122;5.404;2023-10-13T05:38:01;7.80;;;3.87;;
71973;SDS011;59840;52.122;5.404;2023-10-13T05:41:00;6.13;;;3.92;;
71973;SDS011;59840;52.122;5.404;2023-10-13T05:43:50;5.43;;;3.42;;
71973;SDS011;59840;52.122;5.404;2023-10-13T05:46:35;7.05;;;3.40;;
71973;SDS011;59840;52.122;5.404;2023-10-13T05:49:08;8.57;;;3.72;;
71973;SDS011;59840;52.122;5.404;2023-10-13T05:51:53;5.13;;;2.93;;
71973;SDS011;59840;52.122;5.404;2023-10-13T05:54:34;8.88;;;3.13;;
71973;SDS011;59840;52.122;5.404;2023-10-13T05:57:19;7.68;;;2.97;;
71973;SDS011;59840;52.122;5.404;2023-10-13T06:00:18;10.93;;;2.92;;
71973;SDS011;59840;52.122;5.404;2023-10-13T06:03:03;8.60;;;2.90;;
71973;SDS011;59840;52.122;5.404;2023-10-13T06:05:48;9.30;;;2.87;;
71973;SDS011;59840;52.122;5.404;2023-10-13T06:08:33;5.00;;;2.72;;
71973;SDS011;59840;52.122;5.404;2023-10-13T06:11:18;8.20;;;3.00;;
71973;SDS011;59840;52.122;5.404;2023-10-13T06:14:03;8.93;;;2.97;;
71973;SDS011;59840;52.122;5.404;2023-10-13T06:16:48;6.72;;;2.97;;
71973;SDS011;59840;52.122;5.404;2023-10-13T06:19:33;8.23;;;3.17;;
71973;SDS011;59840;52.122;5.404;2023-10-13T06:22:34;4.40;;;2.58;;
71973;SDS011;59840;52.122;5.404;2023-10-13T06:25:20;5.60;;;3.20;;
71973;SDS011;59840;52.122;5.404;2023-10-13T06:28:08;7.47;;;2.80;;
71973;SDS011;59840;52.122;5.404;2023-10-13T06:30:54;6.75;;;3.38;;
71973;SDS011;59840;52.122;5.404;2023-10-13T06:33:22;4.70;;;3.13;;
71973;SDS011;59840;52.122;5.404;2023-10-13T06:35:56;7.88;;;3.45;;
71973;SDS011;59840;52.122;5.404;2023-10-13T06:38:23;7.57;;;3.20;;
71973;SDS011;59840;52.122;5.404;2023-10-13T06:40:50;24.02;;;3.92;;
71973;SDS011;59840;52.122;5.404;2023-10-13T06:43:18;8.63;;;3.55;;
71973;SDS011;59840;52.122;5.404;2023-10-13T06:45:48;5.33;;;3.27;;
71973;SDS011;59840;52.122;5.404;2023-10-13T06:48:27;6.32;;;3.22;;
71973;SDS011;59840;52.122;5.404;2023-10-13T06:51:00;11.82;;;4.10;;
71973;SDS011;59840;52.122;5.404;2023-10-13T06:53:31;4.45;;;3.40;;
71973;SDS011;59840;52.122;5.404;2023-10-13T06:56:06;7.05;;;3.88;;
71973;SDS011;59840;52.122;5.404;2023-10-13T06:58:33;6.87;;;4.37;;
71973;SDS011;59840;52.122;5.404;2023-10-13T07:01:00;6.18;;;4.15;;
71973;SDS011;59840;52.122;5.404;2023-10-13T07:03:28;7.13;;;4.38;;
71973;SDS011;59840;52.122;5.404;2023-10-13T07:05:54;7.35;;;4.50;;
71973;SDS011;59840;52.122;5.404;2023-10-13T07:08:25;18.92;;;5.43;;
71973;SDS011;59840;52.122;5.404;2023-10-13T07:10:53;13.57;;;5.30;;
71973;SDS011;59840;52.122;5.404;2023-10-13T07:13:44;19.27;;;5.60;;
71973;SDS011;59840;52.122;5.404;2023-10-13T07:16:16;8.32;;;5.05;;
71973;SDS011;59840;52.122;5.404;2023-10-13T07:18:54;11.32;;;5.22;;
71973;SDS011;59840;52.122;5.404;2023-10-13T07:21:21;5.03;;;4.50;;
71973;SDS011;59840;52.122;5.404;2023-10-13T07:23:57;5.60;;;4.73;;
71973;SDS011;59840;52.122;5.404;2023-10-13T07:26:37;6.68;;;4.75;;
71973;SDS011;59840;52.122;5.404;2023-10-13T07:29:12;12.18;;;5.30;;
71973;SDS011;59840;52.122;5.404;2023-10-13T07:31:40;12.93;;;4.97;;
71973;SDS011;59840;52.122;5.404;2023-10-13T07:34:11;10.20;;;4.40;;
71973;SDS011;59840;52.122;5.404;2023-10-13T07:36:58;10.60;;;4.27;;
71973;SDS011;59840;52.122;5.404;2023-10-13T07:39:28;6.70;;;4.20;;
71973;SDS011;59840;52.122;5.404;2023-10-13T07:42:00;12.10;;;4.75;;
71973;SDS011;59840;52.122;5.404;2023-10-13T07:44:31;10.48;;;4.35;;
71973;SDS011;59840;52.122;5.404;2023-10-13T07:47:00;9.77;;;4.07;;
71973;SDS011;59840;52.122;5.404;2023-10-13T07:49:35;8.77;;;3.77;;
71973;SDS011;59840;52.122;5.404;2023-10-13T07:52:07;10.25;;;3.67;;
71973;SDS011;59840;52.122;5.404;2023-10-13T07:54:51;8.82;;;3.30;;
71973;SDS011;59840;52.122;5.404;2023-10-13T07:57:42;11.43;;;3.70;;
71973;SDS011;59840;52.122;5.404;2023-10-13T08:00:24;7.30;;;3.47;;
71973;SDS011;59840;52.122;5.404;2023-10-13T08:03:04;11.87;;;3.40;;
71973;SDS011;59840;52.122;5.404;2023-10-13T08:05:54;7.38;;;3.40;;
71973;SDS011;59840;52.122;5.404;2023-10-13T08:08:47;9.07;;;3.20;;
71973;SDS011;59840;52.122;5.404;2023-10-13T08:11:21;8.00;;;3.38;;
71973;SDS011;59840;52.122;5.404;2023-10-13T08:13:51;8.07;;;3.38;;
71973;SDS011;59840;52.122;5.404;2023-10-13T08:16:38;15.47;;;3.97;;
71973;SDS011;59840;52.122;5.404;2023-10-13T08:19:13;10.15;;;3.85;;
71973;SDS011;59840;52.122;5.404;2023-10-13T08:21:45;7.53;;;3.80;;
71973;SDS011;59840;52.122;5.404;2023-10-13T08:24:23;14.02;;;3.75;;
71973;SDS011;59840;52.122;5.404;2023-10-13T08:26:55;5.57;;;3.03;;
71973;SDS011;59840;52.122;5.404;2023-10-13T08:32:23;6.35;;;3.13;;
71973;SDS011;59840;52.122;5.404;2023-10-13T08:34:53;8.93;;;3.28;;
71973;SDS011;59840;52.122;5.404;2023-10-13T08:37:25;11.13;;;3.45;;
71973;SDS011;59840;52.122;5.404;2023-10-13T08:39:59;8.95;;;3.10;;
71973;SDS011;59840;52.122;5.404;2023-10-13T08:42:49;8.10;;;2.90;;
71973;SDS011;59840;52.122;5.404;2023-10-13T08:45:39;7.80;;;2.85;;
71973;SDS011;59840;52.122;5.404;2023-10-13T08:48:13;10.48;;;3.47;;
71973;SDS011;59840;52.122;5.404;2023-10-13T08:50:50;6.38;;;2.83;;
71973;SDS011;59840;52.122;5.404;2023-10-13T08:53:18;8.55;;;3.60;;
71973;SDS011;59840;52.122;5.404;2023-10-13T08:55:58;8.60;;;3.17;;
71973;SDS011;59840;52.122;5.404;2023-10-13T09:01:24;6.90;;;2.83;;
71973;SDS011;59840;52.122;5.404;2023-10-13T09:04:17;11.32;;;3.53;;
71973;SDS011;59840;52.122;5.404;2023-10-13T09:12:29;7.57;;;3.15;;
71973;SDS011;59840;52.122;5.404;2023-10-13T09:15:00;8.27;;;3.38;;
71973;SDS011;59840;52.122;5.404;2023-10-13T09:17:40;8.50;;;2.95;;
71973;SDS011;59840;52.122;5.404;2023-10-13T09:20:18;12.48;;;3.72;;
71973;SDS011;59840;52.122;5.404;2023-10-13T09:23:10;11.47;;;3.50;;
71973;SDS011;59840;52.122;5.404;2023-10-13T09:25:39;7.50;;;3.10;;
71973;SDS011;59840;52.122;5.404;2023-10-13T09:28:20;13.90;;;3.35;;
71973;SDS011;59840;52.122;5.404;2023-10-13T09:30:54;7.20;;;3.00;;
71973;SDS011;59840;52.122;5.404;2023-10-13T09:33:29;8.55;;;3.67;;
71973;SDS011;59840;52.122;5.404;2023-10-13T09:35:59;6.40;;;3.27;;
71973;SDS011;59840;52.122;5.404;2023-10-13T09:38:27;12.48;;;3.40;;
71973;SDS011;59840;52.122;5.404;2023-10-13T09:40:54;8.65;;;3.50;;
71973;SDS011;59840;52.122;5.404;2023-10-13T09:43:24;11.88;;;3.70;;
71973;SDS011;59840;52.122;5.404;2023-10-13T09:45:55;9.90;;;4.18;;
71973;SDS011;59840;52.122;5.404;2023-10-13T09:48:47;12.87;;;3.40;;
71973;SDS011;59840;52.122;5.404;2023-10-13T09:51:16;8.38;;;3.45;;
71973;SDS011;59840;52.122;5.404;2023-10-13T09:54:08;12.40;;;3.40;;
71973;SDS011;59840;52.122;5.404;2023-10-13T09:57:00;8.40;;;3.42;;
71973;SDS011;59840;52.122;5.404;2023-10-13T09:59:44;9.73;;;3.00;;
71973;SDS011;59840;52.122;5.404;2023-10-13T10:02:18;11.50;;;3.90;;
71973;SDS011;59840;52.122;5.404;2023-10-13T10:04:52;8.60;;;3.22;;
71973;SDS011;59840;52.122;5.404;2023-10-13T10:07:54;8.60;;;2.97;;
71973;SDS011;59840;52.122;5.404;2023-10-13T10:10:23;11.73;;;3.40;;
71973;SDS011;59840;52.122;5.404;2023-10-13T10:13:07;7.68;;;3.70;;
71973;SDS011;59840;52.122;5.404;2023-10-13T10:16:08;8.23;;;3.17;;
71973;SDS011;59840;52.122;5.404;2023-10-13T10:18:41;9.68;;;3.20;;
71973;SDS011;59840;52.122;5.404;2023-10-13T10:21:09;6.60;;;3.17;;
71973;SDS011;59840;52.122;5.404;2023-10-13T10:23:36;7.22;;;3.20;;
71973;SDS011;59840;52.122;5.404;2023-10-13T10:26:12;7.93;;;3.65;;
71973;SDS011;59840;52.122;5.404;2023-10-13T10:28:46;8.77;;;3.90;;
71973;SDS011;59840;52.122;5.404;2023-10-13T10:31:13;12.95;;;3.72;;
71973;SDS011;59840;52.122;5.404;2023-10-13T10:33:46;7.60;;;3.95;;
71973;SDS011;59840;52.122;5.404;2023-10-13T10:36:17;7.32;;;3.53;;
71973;SDS011;59840;52.122;5.404;2023-10-13T10:38:54;10.93;;;3.47;;
71973;SDS011;59840;52.122;5.404;2023-10-13T10:41:29;11.47;;;3.63;;
71973;SDS011;59840;52.122;5.404;2023-10-13T10:44:31;7.03;;;3.67;;
71973;SDS011;59840;52.122;5.404;2023-10-13T10:47:13;11.70;;;3.80;;
71973;SDS011;59840;52.122;5.404;2023-10-13T10:50:00;13.77;;;3.47;;
71973;SDS011;59840;52.122;5.404;2023-10-13T10:52:33;10.63;;;3.78;;
71973;SDS011;59840;52.122;5.404;2023-10-13T10:55:04;9.33;;;3.57;;
71973;SDS011;59840;52.122;5.404;2023-10-13T10:57:34;8.80;;;3.33;;
71973;SDS011;59840;52.122;5.404;2023-10-13T11:00:04;8.98;;;3.78;;
71973;SDS011;59840;52.122;5.404;2023-10-13T11:02:38;7.97;;;3.35;;
71973;SDS011;59840;52.122;5.404;2023-10-13T11:05:06;9.15;;;3.72;;
71973;SDS011;59840;52.122;5.404;2023-10-13T11:07:35;8.13;;;3.37;;
71973;SDS011;59840;52.122;5.404;2023-10-13T11:10:09;7.75;;;3.38;;
71973;SDS011;59840;52.122;5.404;2023-10-13T11:12:56;8.65;;;3.58;;
71973;SDS011;59840;52.122;5.404;2023-10-13T11:15:41;8.40;;;3.70;;
71973;SDS011;59840;52.122;5.404;2023-10-13T11:18:11;7.82;;;3.97;;
71973;SDS011;59840;52.122;5.404;2023-10-13T11:20:48;8.23;;;3.73;;
71973;SDS011;59840;52.122;5.404;2023-10-13T11:23:20;7.45;;;3.53;;
71973;SDS011;59840;52.122;5.404;2023-10-13T11:25:58;8.02;;;3.72;;
71973;SDS011;59840;52.122;5.404;2023-10-13T11:28:25;11.25;;;4.20;;
71973;SDS011;59840;52.122;5.404;2023-10-13T11:30:56;6.13;;;3.38;;
71973;SDS011;59840;52.122;5.404;2023-10-13T11:33:25;10.90;;;3.83;;
71973;SDS011;59840;52.122;5.404;2023-10-13T11:35:58;12.85;;;3.58;;
71973;SDS011;59840;52.122;5.404;2023-10-13T11:38:33;13.80;;;4.20;;
71973;SDS011;59840;52.122;5.404;2023-10-13T11:41:16;9.85;;;4.90;;
71973;SDS011;59840;52.122;5.404;2023-10-13T11:43:46;24.08;;;4.32;;
71973;SDS011;59840;52.122;5.404;2023-10-13T11:46:18;10.77;;;3.87;;
71973;SDS011;59840;52.122;5.404;2023-10-13T11:49:03;8.88;;;3.45;;
71973;SDS011;59840;52.122;5.404;2023-10-13T11:51:40;9.70;;;3.92;;
71973;SDS011;59840;52.122;5.404;2023-10-13T11:54:12;9.57;;;4.45;;
71973;SDS011;59840;52.122;5.404;2023-10-13T11:56:42;14.07;;;3.80;;
71973;SDS011;59840;52.122;5.404;2023-10-13T11:59:09;10.60;;;4.60;;
71973;SDS011;59840;52.122;5.404;2023-10-13T12:01:47;11.77;;;3.80;;
71973;SDS011;59840;52.122;5.404;2023-10-13T12:04:34;10.40;;;4.00;;
71973;SDS011;59840;52.122;5.404;2023-10-13T12:07:21;7.22;;;4.50;;
71973;SDS011;59840;52.122;5.404;2023-10-13T12:10:07;10.88;;;3.95;;
71973;SDS011;59840;52.122;5.404;2023-10-13T12:12:41;7.27;;;4.10;;
71973;SDS011;59840;52.122;5.404;2023-10-13T12:15:09;11.90;;;3.75;;
71973;SDS011;59840;52.122;5.404;2023-10-13T12:17:40;6.22;;;3.47;;
71973;SDS011;59840;52.122;5.404;2023-10-13T12:20:11;8.55;;;3.92;;
71973;SDS011;59840;52.122;5.404;2023-10-13T12:22:45;7.30;;;4.18;;
71973;SDS011;59840;52.122;5.404;2023-10-13T12:25:23;11.03;;;4.47;;
71973;SDS011;59840;52.122;5.404;2023-10-13T12:27:55;11.00;;;4.45;;
71973;SDS011;59840;52.122;5.404;2023-10-13T12:30:24;11.88;;;3.97;;
71973;SDS011;59840;52.122;5.404;2023-10-13T12:33:15;13.43;;;3.92;;
71973;SDS011;59840;52.122;5.404;2023-10-13T12:35:58;8.25;;;4.00;;
71973;SDS011;59840;52.122;5.404;2023-10-13T12:38:35;13.33;;;5.17;;
71973;SDS011;59840;52.122;5.404;2023-10-13T12:41:06;15.55;;;4.85;;
71973;SDS011;59840;52.122;5.404;2023-10-13T12:44:01;10.60;;;3.90;;
71973;SDS011;59840;52.122;5.404;2023-10-13T12:46:47;10.52;;;4.28;;
71973;SDS011;59840;52.122;5.404;2023-10-13T12:49:33;14.30;;;4.03;;
71973;SDS011;59840;52.122;5.404;2023-10-13T12:52:10;15.13;;;4.20;;
71973;SDS011;59840;52.122;5.404;2023-10-13T12:54:46;14.88;;;4.53;;
71973;SDS011;59840;52.122;5.404;2023-10-13T12:57:16;10.13;;;4.43;;
71973;SDS011;59840;52.122;5.404;2023-10-13T12:59:43;8.63;;;4.07;;
71973;SDS011;59840;52.122;5.404;2023-10-13T13:02:09;10.18;;;4.30;;
71973;SDS011;59840;52.122;5.404;2023-10-13T13:04:42;14.63;;;3.83;;
71973;SDS011;59840;52.122;5.404;2023-10-13T13:07:11;7.40;;;4.00;;
71973;SDS011;59840;52.122;5.404;2023-10-13T13:09:40;11.05;;;4.45;;
71973;SDS011;59840;52.122;5.404;2023-10-13T13:12:07;7.20;;;4.13;;
71973;SDS011;59840;52.122;5.404;2023-10-13T13:14:34;13.75;;;4.32;;
71973;SDS011;59840;52.122;5.404;2023-10-13T13:17:00;8.30;;;3.73;;
71973;SDS011;59840;52.122;5.404;2023-10-13T13:19:34;14.45;;;4.38;;
71973;SDS011;59840;52.122;5.404;2023-10-13T13:22:02;10.20;;;4.57;;
71973;SDS011;59840;52.122;5.404;2023-10-13T13:24:38;13.98;;;4.28;;
71973;SDS011;59840;52.122;5.404;2023-10-13T13:27:13;12.23;;;4.93;;
71973;SDS011;59840;52.122;5.404;2023-10-13T13:29:43;11.13;;;4.20;;
71973;SDS011;59840;52.122;5.404;2023-10-13T13:32:11;11.32;;;4.88;;
71973;SDS011;59840;52.122;5.404;2023-10-13T13:34:51;15.90;;;4.40;;
71973;SDS011;59840;52.122;5.404;2023-10-13T13:37:25;21.25;;;4.95;;
71973;SDS011;59840;52.122;5.404;2023-10-13T13:39:55;15.10;;;4.45;;
71973;SDS011;59840;52.122;5.404;2023-10-13T13:42:22;10.03;;;4.23;;
71973;SDS011;59840;52.122;5.404;2023-10-13T13:44:48;12.48;;;4.95;;
71973;SDS011;59840;52.122;5.404;2023-10-13T13:47:15;10.95;;;4.75;;
71973;SDS011;59840;52.122;5.404;2023-10-13T13:49:43;15.85;;;5.43;;
71973;SDS011;59840;52.122;5.404;2023-10-13T13:52:18;14.90;;;4.40;;
71973;SDS011;59840;52.122;5.404;2023-10-13T13:54:48;8.57;;;4.03;;
71973;SDS011;59840;52.122;5.404;2023-10-13T13:57:14;9.52;;;5.00;;
71973;SDS011;59840;52.122;5.404;2023-10-13T13:59:41;13.85;;;4.47;;
71973;SDS011;59840;52.122;5.404;2023-10-13T14:02:11;8.98;;;4.32;;
71973;SDS011;59840;52.122;5.404;2023-10-13T14:04:47;14.32;;;5.25;;
71973;SDS011;59840;52.122;5.404;2023-10-13T14:07:17;15.80;;;5.40;;
71973;SDS011;59840;52.122;5.404;2023-10-13T14:09:46;9.43;;;4.50;;
71973;SDS011;59840;52.122;5.404;2023-10-13T14:12:18;9.80;;;4.60;;
71973;SDS011;59840;52.122;5.404;2023-10-13T14:15:11;10.10;;;4.22;;
71973;SDS011;59840;52.122;5.404;2023-10-13T14:17:46;10.25;;;4.63;;
71973;SDS011;59840;52.122;5.404;2023-10-13T14:20:15;10.77;;;4.40;;
71973;SDS011;59840;52.122;5.404;2023-10-13T14:22:45;11.55;;;4.15;;
71973;SDS011;59840;52.122;5.404;2023-10-13T14:25:15;13.20;;;4.65;;
71973;SDS011;59840;52.122;5.404;2023-10-13T14:27:42;9.25;;;3.95;;
71973;SDS011;59840;52.122;5.404;2023-10-13T14:30:09;10.02;;;4.43;;
71973;SDS011;59840;52.122;5.404;2023-10-13T14:32:35;12.13;;;4.27;;
71973;SDS011;59840;52.122;5.404;2023-10-13T14:35:07;7.35;;;3.55;;
71973;SDS011;59840;52.122;5.404;2023-10-13T14:37:42;14.20;;;4.63;;
71973;SDS011;59840;52.122;5.404;2023-10-13T14:40:09;9.30;;;4.25;;
71973;SDS011;59840;52.122;5.404;2023-10-13T14:42:42;8.23;;;4.03;;
71973;SDS011;59840;52.122;5.404;2023-10-13T14:45:09;11.37;;;4.30;;
71973;SDS011;59840;52.122;5.404;2023-10-13T14:47:40;9.32;;;4.25;;
71973;SDS011;59840;52.122;5.404;2023-10-13T14:50:07;11.73;;;4.18;;
71973;SDS011;59840;52.122;5.404;2023-10-13T14:52:48;12.52;;;3.85;;
71973;SDS011;59840;52.122;5.404;2023-10-13T14:55:16;6.63;;;3.63;;
71973;SDS011;59840;52.122;5.404;2023-10-13T14:57:46;9.90;;;4.63;;
71973;SDS011;59840;52.122;5.404;2023-10-13T15:00:14;9.90;;;3.67;;
71973;SDS011;59840;52.122;5.404;2023-10-13T15:02:43;9.55;;;3.78;;
71973;SDS011;59840;52.122;5.404;2023-10-13T15:05:10;14.38;;;4.82;;
71973;SDS011;59840;52.122;5.404;2023-10-13T15:07:43;11.45;;;4.40;;
71973;SDS011;59840;52.122;5.404;2023-10-13T15:10:12;11.33;;;3.67;;
71973;SDS011;59840;52.122;5.404;2023-10-13T15:12:41;11.82;;;4.15;;
71973;SDS011;59840;52.122;5.404;2023-10-13T15:15:11;10.88;;;4.22;;
71973;SDS011;59840;52.122;5.404;2023-10-13T15:17:43;10.55;;;3.72;;
71973;SDS011;59840;52.122;5.404;2023-10-13T15:20:10;12.43;;;4.45;;
71973;SDS011;59840;52.122;5.404;2023-10-13T15:22:45;15.37;;;4.67;;
71973;SDS011;59840;52.122;5.404;2023-10-13T15:25:15;9.70;;;4.28;;
71973;SDS011;59840;52.122;5.404;2023-10-13T15:27:58;8.57;;;3.70;;
71973;SDS011;59840;52.122;5.404;2023-10-13T15:30:29;12.75;;;4.35;;
71973;SDS011;59840;52.122;5.404;2023-10-13T15:33:18;9.55;;;4.35;;
71973;SDS011;59840;52.122;5.404;2023-10-13T15:35:46;8.63;;;4.60;;
71973;SDS011;59840;52.122;5.404;2023-10-13T15:38:13;13.55;;;5.75;;